Time;durP1;ratioP1;P1;durP2;ratioP2;P2;SDS_P1;SDS_P2;PMS_P1;PMS_P2;Temp;Humidity;BMP_temperature;BMP_pressure;BME280_temperature;BME280_humidity;BME280_pressure;Samples;Min_cycle;Max_cycle;Signal;HPM_P1;HPM_P2
2024/01/03 00:01:25;;;;;;;0.50;0.50;;;;;;;10.89;73.69;93843.59;5049613;28;20633;-87
2024/01/03 00:03:53;;;;;;;0.30;0.30;;;;;;;10.88;73.67;93819.66;5045449;28;20248;-87
2024/01/03 00:06:22;;;;;;;0.40;0.40;;;;;;;10.87;74.06;93810.34;5050735;28;20203;-87
2024/01/03 00:08:49;;;;;;;0.33;0.33;;;;;;;10.84;74.06;93820.28;5060706;28;20198;-87
2024/01/03 00:11:20;;;;;;;0.40;0.40;;;;;;;10.86;74.15;93828.59;5056554;28;20219;-86
2024/01/03 00:14:06;;;;;;;0.50;0.50;;;;;;;10.83;73.92;93821.31;5050298;28;20663;-87
2024/01/03 00:16:34;;;;;;;0.50;0.50;;;;;;;10.72;74.45;93833.16;5050547;28;20220;-86
2024/01/03 00:19:04;;;;;;;0.30;0.30;;;;;;;10.71;74.31;93834.94;5043672;28;20201;-87
2024/01/03 00:21:31;;;;;;;0.40;0.40;;;;;;;10.69;75.13;93849.03;5051086;28;20233;-87
2024/01/03 00:23:59;;;;;;;0.40;0.40;;;;;;;10.73;74.99;93839.88;5051047;28;20225;-87
2024/01/03 00:26:26;;;;;;;0.30;0.30;;;;;;;10.70;74.75;93845.47;5050850;28;20201;-87
2024/01/03 00:28:53;;;;;;;0.50;0.50;;;;;;;10.69;74.87;93846.47;5051360;28;20288;-87
2024/01/03 00:31:38;;;;;;;0.40;0.40;;;;;;;10.59;75.37;93862.41;5050124;28;20216;-87
2024/01/03 00:34:11;;;;;;;0.47;0.47;;;;;;;10.64;75.38;93864.34;5048215;28;20196;-87
2024/01/03 00:36:37;;;;;;;0.47;0.40;;;;;;;10.61;75.27;93846.75;5050746;28;20206;-87
2024/01/03 00:39:08;;;;;;;0.40;0.40;;;;;;;10.59;75.80;93862.41;5049805;28;20206;-87
2024/01/03 00:41:37;;;;;;;0.53;0.53;;;;;;;10.61;75.81;93883.56;5049775;28;20214;-87
2024/01/03 00:44:04;;;;;;;0.50;0.50;;;;;;;10.50;76.01;93891.25;5050131;28;20228;-87
2024/01/03 00:46:32;;;;;;;0.40;0.40;;;;;;;10.44;76.33;93908.34;5048978;28;20198;-87
2024/01/03 00:49:00;;;;;;;0.40;0.40;;;;;;;10.54;76.04;93907.84;5049772;28;20204;-86
2024/01/03 00:51:26;;;;;;;0.40;0.40;;;;;;;10.49;75.77;93923.13;5048033;28;20308;-87
2024/01/03 00:53:53;;;;;;;0.50;0.50;;;;;;;10.52;75.58;93905.47;5050712;28;20270;-88
2024/01/03 00:56:20;;;;;;;0.43;0.43;;;;;;;10.49;75.65;93882.75;5049595;28;20197;-87
2024/01/03 00:58:47;;;;;;;0.40;0.40;;;;;;;10.44;75.85;93895.47;5050191;28;20221;-86
2024/01/03 01:01:13;;;;;;;0.50;0.50;;;;;;;10.45;75.32;93889.31;5050168;28;20337;-87
2024/01/03 01:03:44;;;;;;;0.43;0.43;;;;;;;10.51;75.37;93891.03;5050719;28;20229;-87
2024/01/03 01:06:10;;;;;;;0.57;0.57;;;;;;;10.53;74.65;93871.03;5059916;28;20846;-87
2024/01/03 01:08:37;;;;;;;0.50;0.50;;;;;;;10.53;73.90;93849.66;5050010;28;20350;-86
2024/01/03 01:11:03;;;;;;;0.47;0.47;;;;;;;10.49;73.89;93845.94;5051837;28;20221;-88
2024/01/03 01:13:30;;;;;;;0.57;0.57;;;;;;;10.53;73.76;93841.94;5053657;28;20201;-86
2024/01/03 01:15:56;;;;;;;0.50;0.50;;;;;;;10.47;73.69;93840.22;5049425;28;20858;-87
2024/01/03 01:18:23;;;;;;;0.60;0.60;;;;;;;10.50;73.66;93850.88;5050784;28;20201;-87
2024/01/03 01:20:51;;;;;;;0.50;0.50;;;;;;;10.56;73.64;93862.09;5049626;28;20221;-87
2024/01/03 01:23:17;;;;;;;0.60;0.60;;;;;;;10.51;73.87;93852.44;5046877;28;20225;-88
2024/01/03 01:25:44;;;;;;;0.43;0.43;;;;;;;10.42;73.78;93863.25;5049595;28;20202;-87
2024/01/03 01:28:10;;;;;;;0.60;0.60;;;;;;;10.42;73.46;93858.09;5050029;28;20206;-87
2024/01/03 01:30:36;;;;;;;0.67;0.53;;;;;;;10.46;73.70;93854.09;5048543;28;20222;-87
2024/01/03 01:33:03;;;;;;;0.50;0.50;;;;;;;10.46;73.47;93843.81;5049455;28;20198;-87
2024/01/03 01:35:30;;;;;;;0.50;0.50;;;;;;;10.49;73.17;93848.50;5049499;28;20578;-87
2024/01/03 01:37:57;;;;;;;0.93;0.50;;;;;;;10.51;73.21;93856.81;5047705;28;20205;-87
2024/01/03 01:40:24;;;;;;;0.87;0.50;;;;;;;10.46;72.91;93854.09;5048548;28;20226;-87
2024/01/03 01:42:50;;;;;;;0.40;0.40;;;;;;;10.39;72.62;93849.81;5048891;28;20198;-88
2024/01/03 01:45:16;;;;;;;0.50;0.50;;;;;;;10.48;72.54;93842.59;5048590;28;20193;-87
2024/01/03 01:47:44;;;;;;;0.30;0.30;;;;;;;10.44;72.46;93845.81;5049305;28;20796;-87
2024/01/03 01:50:11;;;;;;;0.40;0.40;;;;;;;10.50;72.50;93858.59;5048048;28;20197;-87
2024/01/03 01:52:39;;;;;;;1.07;0.30;;;;;;;10.54;72.49;93840.94;5048159;28;20186;-87
2024/01/03 01:55:08;;;;;;;0.40;0.40;;;;;;;10.59;72.06;93843.63;5046262;28;20716;-87
2024/01/03 01:57:38;;;;;;;1.90;0.47;;;;;;;10.57;72.33;93843.06;5048893;28;20232;-87
2024/01/03 02:00:07;;;;;;;0.53;0.40;;;;;;;10.54;72.44;93859.72;5052199;28;20200;-87
2024/01/03 02:02:35;;;;;;;0.50;0.50;;;;;;;10.58;72.52;93858.28;5059355;28;20686;-87
2024/01/03 02:05:02;;;;;;;0.40;0.40;;;;;;;10.60;72.72;93870.91;5048250;28;20220;-87
2024/01/03 02:07:31;;;;;;;0.47;0.47;;;;;;;10.60;72.55;93860.63;5049177;28;20209;-87
2024/01/03 02:09:57;;;;;;;0.40;0.40;;;;;;;10.65;73.01;93868.47;5048666;28;20284;-87
2024/01/03 02:12:29;;;;;;;0.50;0.50;;;;;;;10.57;73.50;93881.66;5047818;28;20211;-86
2024/01/03 02:14:55;;;;;;;0.50;0.50;;;;;;;10.66;73.01;93904.28;5048334;28;20185;-87
2024/01/03 02:17:23;;;;;;;0.40;0.40;;;;;;;10.75;73.05;93896.28;5048754;28;20213;-86
2024/01/03 02:19:49;;;;;;;0.40;0.40;;;;;;;10.66;73.20;93898.38;5048073;28;20305;-87
2024/01/03 02:22:17;;;;;;;0.60;0.50;;;;;;;10.70;73.25;93891.78;5048833;28;20229;-87
2024/01/03 02:24:43;;;;;;;0.57;0.43;;;;;;;10.74;73.23;93892.91;5048315;28;20197;-87
2024/01/03 02:27:12;;;;;;;0.50;0.50;;;;;;;10.73;73.14;93889.56;5044851;28;20205;-87
2024/01/03 02:29:39;;;;;;;0.47;0.47;;;;;;;10.62;73.34;93881.78;5048749;28;20205;-88
2024/01/03 02:32:06;;;;;;;0.40;0.40;;;;;;;10.62;73.40;93887.72;5047572;28;20218;-87
2024/01/03 02:34:33;;;;;;;0.40;0.40;;;;;;;10.65;73.05;93896.78;5047590;28;20202;-86
2024/01/03 02:37:00;;;;;;;0.40;0.40;;;;;;;10.69;72.95;93872.19;5048148;28;20196;-87
2024/01/03 02:39:27;;;;;;;0.40;0.40;;;;;;;10.70;72.53;93874.56;5048961;28;20194;-87
2024/01/03 02:41:54;;;;;;;0.40;0.40;;;;;;;10.70;72.65;93873.75;5048516;28;20216;-87
2024/01/03 02:44:23;;;;;;;1.37;0.50;;;;;;;10.61;72.80;93873.28;5046868;28;20590;-87
2024/01/03 02:46:49;;;;;;;0.40;0.40;;;;;;;10.64;72.87;93879.78;5048488;28;20205;-87
2024/01/03 02:49:16;;;;;;;0.30;0.30;;;;;;;10.63;72.77;93873.84;5048784;28;20194;-87
2024/01/03 02:51:42;;;;;;;0.40;0.40;;;;;;;10.64;72.71;93882.34;5047994;28;20216;-87
2024/01/03 02:54:09;;;;;;;0.40;0.40;;;;;;;10.62;72.82;93874.84;5048754;28;20202;-87
2024/01/03 02:56:39;;;;;;;0.40;0.40;;;;;;;10.67;72.67;93889.63;5047884;28;20198;-87
2024/01/03 02:59:06;;;;;;;0.50;0.40;;;;;;;10.59;73.48;93913.09;5054221;28;20211;-87
2024/01/03 03:01:32;;;;;;;0.50;0.50;;;;;;;10.64;73.02;93888.28;5041294;28;20213;-87
2024/01/03 03:03:59;;;;;;;0.73;0.40;;;;;;;10.68;73.00;93881.69;5052456;28;20245;-87
2024/01/03 03:06:25;;;;;;;0.40;0.40;;;;;;;10.71;72.72;93870.97;5047910;28;20202;-87
2024/01/03 03:08:52;;;;;;;5.57;0.60;;;;;;;10.69;72.72;93872.19;5049140;28;20213;-87
2024/01/03 03:11:18;;;;;;;0.40;0.40;;;;;;;10.70;72.47;93882.28;5052072;28;20214;-87
2024/01/03 03:13:46;;;;;;;0.40;0.40;;;;;;;10.73;72.79;93886.19;5052472;28;20247;-87
2024/01/03 03:16:13;;;;;;;0.50;0.50;;;;;;;10.72;72.24;93869.19;5049759;28;20208;-87
2024/01/03 03:18:39;;;;;;;0.43;0.43;;;;;;;10.79;72.41;93874.22;5052099;28;20240;-87
2024/01/03 03:21:06;;;;;;;0.40;0.40;;;;;;;10.78;72.43;93872.66;5051219;28;20565;-87
2024/01/03 03:23:32;;;;;;;0.70;0.50;;;;;;;10.71;72.70;93865.81;5051766;28;20232;-88
2024/01/03 03:26:02;;;;;;;0.67;0.53;;;;;;;10.69;72.52;93887.63;5051798;28;20861;-87
2024/01/03 03:28:32;;;;;;;0.83;0.53;;;;;;;10.74;72.59;93880.06;5051991;28;20206;-87
2024/01/03 03:31:00;;;;;;;0.40;0.40;;;;;;;10.78;72.29;93877.81;5048041;28;20226;-87
2024/01/03 03:33:26;;;;;;;0.40;0.40;;;;;;;10.78;71.98;93844.34;5049475;28;20701;-86
2024/01/03 03:35:53;;;;;;;0.40;0.40;;;;;;;10.71;72.00;93847.03;5051685;28;20197;-87
2024/01/03 03:38:19;;;;;;;0.40;0.40;;;;;;;10.78;72.17;93868.28;5051465;28;20540;-87
2024/01/03 03:40:46;;;;;;;0.40;0.40;;;;;;;10.76;72.04;93847.16;5050145;28;20703;-87
2024/01/03 03:43:12;;;;;;;0.67;0.50;;;;;;;10.79;72.08;93845.91;5051010;28;20209;-87
2024/01/03 03:45:39;;;;;;;0.40;0.40;;;;;;;10.80;71.53;93840.53;5051427;28;20193;-87
2024/01/03 03:48:07;;;;;;;0.40;0.40;;;;;;;10.76;71.61;93834.28;5046052;28;20570;-86
2024/01/03 03:50:37;;;;;;;0.50;0.50;;;;;;;10.71;71.18;93818.72;5050912;28;20236;-87
2024/01/03 03:53:10;;;;;;;0.50;0.50;;;;;;;10.69;71.24;93828.44;5054376;28;20566;-87
2024/01/03 03:55:40;;;;;;;0.40;0.40;;;;;;;10.63;71.19;93804.34;5054089;28;20200;-87
2024/01/03 03:58:07;;;;;;;0.83;0.40;;;;;;;10.64;71.15;93821.38;5051242;28;20194;-87
2024/01/03 04:00:33;;;;;;;0.40;0.40;;;;;;;10.64;71.16;93813.66;5051418;28;20232;-87
2024/01/03 04:03:00;;;;;;;0.40;0.40;;;;;;;10.65;70.82;93809.28;5049651;28;20312;-87
2024/01/03 04:05:27;;;;;;;0.83;0.50;;;;;;;10.56;71.27;93813.19;5051245;28;20222;-87
2024/01/03 04:07:54;;;;;;;0.53;0.53;;;;;;;10.66;71.14;93806.50;5050547;28;20687;-87
2024/01/03 04:10:20;;;;;;;0.50;0.50;;;;;;;10.64;71.23;93808.50;5050176;28;20237;-87
2024/01/03 04:12:47;;;;;;;0.40;0.40;;;;;;;10.66;71.27;93826.31;5050860;28;20554;-87
2024/01/03 04:15:13;;;;;;;0.60;0.60;;;;;;;10.63;71.19;93821.59;5050295;28;20200;-87
2024/01/03 04:17:40;;;;;;;0.50;0.50;;;;;;;10.61;71.24;93821.81;5050171;28;20574;-87
2024/01/03 04:20:08;;;;;;;0.87;0.40;;;;;;;10.63;71.15;93837.03;5048340;28;20207;-87
2024/01/03 04:22:36;;;;;;;0.40;0.40;;;;;;;10.57;71.43;93838.72;5050124;28;20213;-87
2024/01/03 04:25:02;;;;;;;0.50;0.50;;;;;;;10.55;71.52;93858.72;5049469;28;20304;-87
2024/01/03 04:27:29;;;;;;;0.50;0.50;;;;;;;10.54;71.62;93857.16;5050597;28;20594;-87
2024/01/03 04:29:55;;;;;;;0.40;0.40;;;;;;;10.56;71.66;93847.44;5050377;28;20208;-87
2024/01/03 04:32:22;;;;;;;0.40;0.40;;;;;;;10.61;71.81;93833.88;5050636;28;20569;-87
2024/01/03 04:34:48;;;;;;;0.50;0.50;;;;;;;10.58;71.70;93844.66;5049559;28;20745;-87
2024/01/03 04:37:15;;;;;;;0.40;0.40;;;;;;;10.57;71.65;93848.22;5048691;28;20209;-87
2024/01/03 04:39:42;;;;;;;0.57;0.50;;;;;;;10.53;72.11;93852.22;5050209;28;20203;-87
2024/01/03 04:42:09;;;;;;;0.40;0.40;;;;;;;10.55;72.20;93863.88;5050240;28;20725;-87
2024/01/03 04:44:35;;;;;;;0.50;0.50;;;;;;;10.57;72.16;93855.94;5050077;28;20232;-87
2024/01/03 04:47:02;;;;;;;0.77;0.53;;;;;;;10.57;72.27;93859.28;5050124;28;20197;-86
2024/01/03 04:49:29;;;;;;;0.50;0.50;;;;;;;10.58;72.04;93845.41;5057250;28;20204;-87
2024/01/03 04:51:55;;;;;;;0.43;0.43;;;;;;;10.51;72.37;93862.72;5053105;28;20241;-87
2024/01/03 04:54:22;;;;;;;0.43;0.40;;;;;;;10.53;72.30;93881.31;5054404;28;20201;-88
2024/01/03 04:56:52;;;;;;;0.40;0.40;;;;;;;10.53;71.83;93876.16;5049994;28;20197;-88
2024/01/03 04:59:18;;;;;;;0.50;0.50;;;;;;;10.54;72.15;93887.25;5050687;28;20578;-87
2024/01/03 05:01:45;;;;;;;0.40;0.40;;;;;;;10.52;72.14;93884.09;5048449;28;20611;-89
2024/01/03 05:04:11;;;;;;;0.50;0.50;;;;;;;10.55;72.20;93884.47;5049910;28;20219;-88
2024/01/03 05:06:38;;;;;;;1.57;0.53;;;;;;;10.59;72.50;93887.34;5049395;28;20255;-87
2024/01/03 05:09:04;;;;;;;0.50;0.50;;;;;;;10.60;72.57;93897.44;5047503;28;20197;-88
2024/01/03 05:11:31;;;;;;;0.50;0.50;;;;;;;10.53;72.61;93895.97;5050077;28;20279;-87
2024/01/03 05:13:59;;;;;;;0.50;0.50;;;;;;;10.49;72.77;93916.19;5049381;28;20275;-87
2024/01/03 05:16:25;;;;;;;0.30;0.30;;;;;;;10.48;72.93;93900.97;5049685;28;20854;-87
2024/01/03 05:18:52;;;;;;;0.40;0.40;;;;;;;10.47;72.98;93919.97;5049804;28;20670;-87
2024/01/03 05:21:18;;;;;;;0.50;0.50;;;;;;;10.49;72.92;93921.34;5050360;28;20699;-87
2024/01/03 05:23:44;;;;;;;0.33;0.33;;;;;;;10.48;73.38;93926.69;5048749;28;20210;-87
2024/01/03 05:26:13;;;;;;;0.40;0.40;;;;;;;10.38;74.07;93958.09;5049460;28;20205;-88
2024/01/03 05:28:40;;;;;;;0.40;0.40;;;;;;;10.45;74.50;93970.88;5049508;28;20213;-87
2024/01/03 05:31:11;;;;;;;0.40;0.40;;;;;;;10.41;74.92;93978.22;5046894;28;20209;-89
2024/01/03 05:33:37;;;;;;;0.40;0.40;;;;;;;10.44;75.16;94007.88;5048331;28;20193;-88
2024/01/03 05:36:04;;;;;;;0.40;0.40;;;;;;;10.43;75.46;94019.16;5049769;28;20200;-89
2024/01/03 05:38:31;;;;;;;0.40;0.40;;;;;;;10.42;75.34;94020.16;5049985;28;20189;-86
2024/01/03 05:40:57;;;;;;;0.40;0.40;;;;;;;10.40;75.20;94025.53;5049242;28;20256;-85
2024/01/03 05:43:24;;;;;;;0.40;0.40;;;;;;;10.35;76.02;94059.63;5052211;28;20336;-85
2024/01/03 05:45:51;;;;;;;0.50;0.50;;;;;;;10.35;76.52;94077.63;5057475;28;20283;-85
2024/01/03 05:48:20;;;;;;;0.43;0.40;;;;;;;10.28;78.59;94136.06;5058409;28;20612;-85
2024/01/03 05:50:46;;;;;;;0.50;0.50;;;;;;;10.22;81.01;94178.03;5049880;28;20224;-87
2024/01/03 05:53:14;;;;;;;0.40;0.40;;;;;;;10.19;82.13;94216.25;5050060;28;20709;-88
2024/01/03 05:55:44;;;;;;;0.40;0.40;;;;;;;10.18;82.40;94210.31;5047850;28;20190;-89
2024/01/03 05:58:22;;;;;;;0.40;0.40;;;;;;;10.26;81.32;94188.69;5046951;28;20210;-88
2024/01/03 06:00:49;;;;;;;0.33;0.33;;;;;;;10.29;81.65;94193.44;5049143;28;20312;-87
2024/01/03 06:03:17;;;;;;;0.40;0.40;;;;;;;10.31;81.29;94191.44;5049712;28;20198;-89
2024/01/03 06:08:26;;;;;;;0.50;0.40;;;;;;;10.38;80.56;94192.97;5049129;28;20699;-88
2024/01/03 06:10:56;;;;;;;0.30;0.30;;;;;;;10.34;81.04;94201.31;5049353;28;20661;-88
2024/01/03 06:13:22;;;;;;;0.40;0.40;;;;;;;10.34;81.56;94217.53;5046719;28;20277;-88
2024/01/03 06:15:49;;;;;;;0.40;0.40;;;;;;;10.28;83.04;94243.31;5049419;28;20193;-88
2024/01/03 06:18:22;;;;;;;0.30;0.30;;;;;;;10.21;84.03;94266.47;5049904;28;20207;-89
2024/01/03 06:20:50;;;;;;;0.87;0.60;;;;;;;10.06;84.30;94283.94;5049521;28;20214;-88
2024/01/03 06:23:16;;;;;;;0.40;0.40;;;;;;;10.07;85.50;94290.66;5049717;28;20210;-87
2024/01/03 06:25:43;;;;;;;0.40;0.40;;;;;;;10.13;85.78;94300.13;5048921;28;20340;-88
2024/01/03 06:28:14;;;;;;;0.80;0.57;;;;;;;10.07;86.59;94313.00;5047174;28;20204;-87
2024/01/03 06:33:26;;;;;;;0.40;0.40;;;;;;;10.08;86.43;94320.53;5046796;28;20713;-88
2024/01/03 06:35:54;;;;;;;0.70;0.60;;;;;;;10.16;86.30;94306.66;5048302;28;20329;-88
2024/01/03 06:38:30;;;;;;;1.33;0.50;;;;;;;10.14;85.72;94296.56;5046370;28;20225;-87
2024/01/03 06:40:56;;;;;;;0.50;0.50;;;;;;;10.14;84.58;94272.63;5047750;28;20299;-88
2024/01/03 06:43:23;;;;;;;0.47;0.47;;;;;;;10.19;84.22;94254.84;5052800;28;20200;-87
2024/01/03 06:45:49;;;;;;;0.80;0.50;;;;;;;10.21;83.55;94263.13;5052862;28;20214;-88
2024/01/03 06:48:16;;;;;;;2.27;1.80;;;;;;;10.14;83.08;94234.84;5053129;28;20294;-88
2024/01/03 06:51:05;;;;;;;0.70;0.70;;;;;;;10.22;82.75;94226.13;5052708;28;20218;-88
2024/01/03 06:53:32;;;;;;;0.47;0.47;;;;;;;10.20;82.36;94238.41;5051219;28;20213;-88
2024/01/03 06:55:58;;;;;;;0.40;0.40;;;;;;;10.23;81.57;94222.53;5052416;28;20197;-88
2024/01/03 06:58:28;;;;;;;0.67;0.50;;;;;;;10.34;81.29;94219.31;5052095;28;20200;-87
2024/01/03 07:00:58;;;;;;;0.50;0.50;;;;;;;10.34;80.99;94206.47;5048246;28;20217;-86
2024/01/03 07:03:30;;;;;;;0.47;0.47;;;;;;;10.32;80.91;94221.31;5048875;28;20198;-87
2024/01/03 07:05:57;;;;;;;1.07;0.60;;;;;;;10.26;81.88;94243.50;5052510;28;20213;-89
2024/01/03 07:08:47;;;;;;;0.60;0.60;;;;;;;10.29;82.53;94244.88;5052766;28;20203;-87
2024/01/03 07:11:17;;;;;;;0.50;0.50;;;;;;;10.38;84.40;94306.19;5053756;28;20249;-87
2024/01/03 07:13:43;;;;;;;1.27;0.50;;;;;;;10.33;83.60;94279.50;5054040;28;20549;-88
2024/01/03 07:16:18;;;;;;;0.50;0.40;;;;;;;10.29;84.36;94289.41;5054579;28;20198;-87
2024/01/03 07:18:45;;;;;;;0.50;0.50;;;;;;;10.27;84.44;94308.59;5045048;28;20193;-88
2024/01/03 07:21:12;;;;;;;0.63;0.50;;;;;;;10.22;84.28;94293.00;5052256;28;20229;-87
2024/01/03 07:23:39;;;;;;;0.50;0.50;;;;;;;10.25;83.96;94290.78;5052017;28;20198;-86
2024/01/03 07:26:06;;;;;;;0.50;0.50;;;;;;;10.32;83.54;94293.34;5052474;28;20918;-86
2024/01/03 07:28:55;;;;;;;0.50;0.50;;;;;;;10.30;82.81;94283.25;5050765;28;20197;-86
2024/01/03 07:31:50;;;;;;;1.33;0.70;;;;;;;10.24;82.02;94265.28;5046467;28;20229;-86
2024/01/03 07:34:19;;;;;;;0.93;0.70;;;;;;;10.28;81.86;94269.03;5046628;28;20229;-87
2024/01/03 07:36:46;;;;;;;1.07;0.60;;;;;;;10.28;81.13;94245.88;5051483;28;20315;-86
2024/01/03 07:39:28;;;;;;;0.60;0.60;;;;;;;10.30;80.96;94249.03;5059889;28;20197;-86
2024/01/03 07:41:56;;;;;;;1.03;0.90;;;;;;;10.36;80.85;94243.06;5059407;28;20228;-85
2024/01/03 07:44:42;;;;;;;0.83;0.60;;;;;;;10.34;79.77;94216.75;5051248;28;20570;-86
2024/01/03 07:53:11;;;;;;;1.20;0.70;;;;;;;10.32;75.63;94097.84;5003779;28;20758;-86
2024/01/03 07:55:49;;;;;;;0.63;0.63;;;;;;;10.40;74.67;94071.84;5013062;28;20192;-86
2024/01/03 07:58:29;;;;;;;;;;;;;;;;;;;;;
2024/01/03 08:00:56;;;;;;;0.93;0.70;;;;;;;10.67;73.05;94044.06;5011429;28;20226;-86
2024/01/03 08:03:22;;;;;;;2.20;0.80;;;;;;;10.84;72.23;94000.50;5016028;28;20302;-86
2024/01/03 08:05:49;;;;;;;2.07;1.13;;;;;;;10.83;71.63;93986.84;5014602;28;20219;-86
2024/01/03 08:08:17;;;;;;;1.37;0.70;;;;;;;10.80;74.19;94087.66;5013950;28;20213;-85
2024/01/03 08:10:45;;;;;;;2.67;0.90;;;;;;;10.72;74.16;94073.31;5013295;28;20603;-86
2024/01/03 08:13:13;;;;;;;2.33;0.90;;;;;;;10.49;75.63;94095.50;5012833;28;20206;-86
2024/01/03 08:15:42;;;;;;;3.27;0.80;;;;;;;10.32;76.32;94121.78;5013107;28;20203;-86
2024/01/03 08:18:09;;;;;;;1.03;0.87;;;;;;;10.34;77.46;94148.09;5013574;28;20209;-85
2024/01/03 08:20:37;;;;;;;2.60;1.13;;;;;;;10.24;77.51;94158.03;5014217;28;20219;-86
2024/01/03 08:23:04;;;;;;;2.47;0.93;;;;;;;10.29;77.56;94167.72;5013489;28;20210;-87
2024/01/03 08:25:33;;;;;;;1.70;0.87;;;;;;;10.36;76.97;94163.31;5015380;28;20221;-85
2024/01/03 08:28:01;;;;;;;2.00;0.80;;;;;;;10.28;77.15;94155.84;5016125;28;20209;-87
2024/01/03 08:30:27;;;;;;;4.20;1.17;;;;;;;10.25;76.80;94130.53;5015679;28;20227;-86
2024/01/03 08:32:54;;;;;;;1.30;0.83;;;;;;;10.43;76.07;94119.50;5017590;28;20206;-86
2024/01/03 08:35:21;;;;;;;1.47;0.80;;;;;;;10.47;75.28;94100.88;5015964;28;20621;-85
2024/01/03 08:37:47;;;;;;;0.60;0.60;;;;;;;10.49;74.70;94077.50;5013440;28;20724;-85
2024/01/03 08:40:14;;;;;;;0.80;0.60;;;;;;;10.47;74.75;94076.94;5016304;28;20195;-86
2024/01/03 08:42:40;;;;;;;1.83;0.90;;;;;;;10.56;74.36;94067.94;5015124;28;20205;-87
2024/01/03 08:45:10;;;;;;;1.07;0.90;;;;;;;10.70;73.26;94033.34;5012865;28;20202;-87
2024/01/03 08:47:36;;;;;;;0.70;0.70;;;;;;;10.74;72.40;94016.47;5013003;28;20195;-86
2024/01/03 08:50:03;;;;;;;0.60;0.60;;;;;;;10.86;72.34;94013.94;5014684;28;20787;-86
2024/01/03 08:52:29;;;;;;;0.87;0.67;;;;;;;10.75;71.85;93983.78;5013294;28;20202;-86
2024/01/03 08:54:56;;;;;;;2.50;0.93;;;;;;;10.74;71.56;93983.00;5012283;28;20206;-86
2024/01/03 08:57:22;;;;;;;1.00;0.70;;;;;;;10.74;71.56;93995.88;5014800;28;20203;-87
2024/01/03 08:59:51;;;;;;;1.77;0.80;;;;;;;10.64;72.05;94001.53;5012572;28;20531;-87
2024/01/03 09:02:19;;;;;;;1.03;0.83;;;;;;;10.77;71.89;94021.19;5013878;28;20229;-86
2024/01/03 09:04:50;;;;;;;2.67;0.93;;;;;;;10.77;71.41;93984.38;5014239;28;20218;-86
2024/01/03 09:07:17;;;;;;;1.20;0.90;;;;;;;10.81;71.69;94017.16;5012732;28;20214;-87
2024/01/03 09:09:44;;;;;;;1.07;0.87;;;;;;;10.79;71.23;93965.09;5013881;28;20201;-85
2024/01/03 09:12:12;;;;;;;2.70;0.77;;;;;;;10.85;70.50;93974.53;5015214;28;20258;-87
2024/01/03 09:14:42;;;;;;;1.87;0.90;;;;;;;10.87;70.46;93951.94;5013679;28;20198;-85
2024/01/03 09:17:19;;;;;;;1.17;0.70;;;;;;;10.88;69.78;93914.91;5012701;28;20226;-85
2024/01/03 09:19:46;;;;;;;1.70;0.70;;;;;;;10.87;69.24;93885.00;5012200;28;20202;-85
2024/01/03 09:22:12;;;;;;;1.23;0.60;;;;;;;11.06;68.79;93878.78;5012471;28;20237;-86
2024/01/03 09:24:39;;;;;;;0.93;0.90;;;;;;;11.22;67.27;93819.91;5012321;28;20229;-86
2024/01/03 09:27:06;;;;;;;1.07;0.73;;;;;;;11.70;66.09;93788.72;5005348;28;20223;-87
2024/01/03 09:29:34;;;;;;;1.27;0.80;;;;;;;11.71;65.02;93716.31;5012329;28;20241;-87
2024/01/03 09:32:02;;;;;;;1.47;0.80;;;;;;;11.74;65.26;93738.25;5012055;28;20234;-86
2024/01/03 09:34:32;;;;;;;1.23;0.70;;;;;;;11.66;64.69;93716.22;5013472;28;20203;-85
2024/01/03 09:37:02;;;;;;;2.40;0.90;;;;;;;11.63;64.88;93721.03;5010395;28;20197;-86
2024/01/03 09:39:28;;;;;;;1.53;0.90;;;;;;;11.54;64.97;93715.47;5009729;28;20458;-86
2024/01/03 09:41:55;;;;;;;1.17;0.70;;;;;;;11.63;64.91;93733.94;5008206;28;20254;-86
2024/01/03 09:44:22;;;;;;;1.10;0.70;;;;;;;12.03;63.83;93672.06;5012096;28;20206;-86
2024/01/03 09:46:49;;;;;;;2.33;0.70;;;;;;;12.45;62.77;93646.69;5012091;28;20249;-86
2024/01/03 09:49:17;;;;;;;1.10;0.73;;;;;;;12.77;61.25;93577.16;5013313;28;20233;-86
2024/01/03 09:51:47;;;;;;;0.80;0.73;;;;;;;13.03;60.23;93537.72;5012173;28;20222;-86
2024/01/03 09:54:14;;;;;;;1.90;1.23;;;;;;;13.25;59.11;93478.28;5011943;28;20191;-86
2024/01/03 09:56:41;;;;;;;0.87;0.67;;;;;;;13.20;58.74;93444.66;5011880;28;20206;-86
2024/01/03 09:59:08;;;;;;;1.00;0.80;;;;;;;12.86;59.03;93436.28;5005117;28;20195;-86
2024/01/03 10:01:40;;;;;;;1.53;0.90;;;;;;;12.56;58.88;93416.06;5010101;28;20229;-86
2024/01/03 10:04:06;;;;;;;1.43;0.73;;;;;;;12.68;59.57;93475.34;5009260;28;20213;-87
2024/01/03 10:06:33;;;;;;;0.90;0.80;;;;;;;12.79;58.46;93415.03;5008477;28;20237;-87
2024/01/03 10:09:03;;;;;;;2.77;1.07;;;;;;;12.78;58.15;93423.78;5009612;28;20629;-86
2024/01/03 10:11:30;;;;;;;1.50;0.70;;;;;;;12.92;57.83;93378.47;5009185;28;20215;-87
2024/01/03 10:13:57;;;;;;;1.00;0.70;;;;;;;13.07;57.75;93380.44;5009035;28;20298;-87
2024/01/03 10:16:25;;;;;;;1.57;0.80;;;;;;;13.33;56.80;93340.09;5006299;28;20210;-86
2024/01/03 10:19:10;;;;;;;1.07;0.80;;;;;;;13.23;56.81;93324.53;5011119;28;20202;-87
2024/01/03 10:21:38;;;;;;;0.87;0.53;;;;;;;13.01;57.25;93345.25;5009826;28;20218;-87
2024/01/03 10:24:13;;;;;;;0.60;0.60;;;;;;;12.96;57.30;93360.69;5011575;28;20273;-87
2024/01/03 10:26:46;;;;;;;0.67;0.67;;;;;;;12.81;57.05;93327.78;5011449;28;20218;-87
2024/01/03 10:29:14;;;;;;;2.10;1.10;;;;;;;12.77;56.71;93326.72;5004703;28;20210;-87
2024/01/03 10:31:42;;;;;;;2.23;0.83;;;;;;;12.63;56.02;93261.81;5005865;28;20276;-87
2024/01/03 10:34:17;;;;;;;1.43;0.60;;;;;;;12.56;56.14;93289.59;5007250;28;20226;-87
2024/01/03 10:36:47;;;;;;;1.20;0.70;;;;;;;12.47;56.45;93296.25;5008265;28;20758;-87
2024/01/03 10:39:18;;;;;;;3.53;1.00;;;;;;;12.28;56.10;93267.44;5012386;28;20703;-87
2024/01/03 10:41:46;;;;;;;1.07;0.73;;;;;;;12.32;56.48;93294.28;5011474;28;20215;-87
2024/01/03 10:44:15;;;;;;;1.40;0.73;;;;;;;12.20;56.55;93313.50;5014402;28;20633;-87
2024/01/03 10:46:41;;;;;;;0.80;0.67;;;;;;;12.01;56.62;93323.34;5011990;28;20250;-86
2024/01/03 10:49:08;;;;;;;1.37;0.90;;;;;;;11.90;56.16;93281.22;5014724;28;20202;-85
2024/01/03 10:51:39;;;;;;;1.10;0.80;;;;;;;11.89;55.80;93260.81;5014550;28;20225;-86
2024/01/03 10:54:08;;;;;;;1.43;0.87;;;;;;;12.03;55.68;93257.63;5014878;28;20183;-86
2024/01/03 10:56:36;;;;;;;0.93;0.67;;;;;;;12.08;55.55;93234.47;5013618;28;20658;-86
2024/01/03 10:59:06;;;;;;;0.77;0.70;;;;;;;12.17;55.38;93246.91;5017190;28;20191;-87
2024/01/03 11:01:38;;;;;;;1.47;0.90;;;;;;;12.14;54.98;93224.97;5014496;28;20219;-87
2024/01/03 11:04:11;;;;;;;1.10;0.60;;;;;;;12.19;54.86;93217.28;5014483;28;20257;-86
2024/01/03 11:06:47;;;;;;;1.53;1.00;;;;;;;12.43;54.89;93231.44;5011937;28;20219;-87
2024/01/03 11:09:16;;;;;;;0.73;0.60;;;;;;;12.78;54.05;93202.53;5013612;28;20203;-87
2024/01/03 11:11:48;;;;;;;1.50;0.90;;;;;;;12.64;53.36;93133.50;5011001;28;20215;-87
2024/01/03 11:14:24;;;;;;;2.07;1.03;;;;;;;12.49;53.06;93077.44;5010740;28;20285;-87
2024/01/03 11:16:51;;;;;;;1.20;0.73;;;;;;;12.37;52.93;93082.75;5010386;28;20202;-87
2024/01/03 11:19:31;;;;;;;0.87;0.67;;;;;;;12.40;52.62;93073.75;5006934;28;20291;-86
2024/01/03 11:22:00;;;;;;;0.97;0.70;;;;;;;12.33;51.93;93016.41;5015943;28;20231;-87
2024/01/03 11:24:44;;;;;;;1.83;0.80;;;;;;;12.29;51.64;93011.00;5023565;28;20215;-85
2024/01/03 11:27:21;;;;;;;0.80;0.80;;;;;;;12.30;51.65;93011.78;5023099;28;20724;-85
2024/01/03 11:29:51;;;;;;;1.27;0.70;;;;;;;12.24;51.07;92982.59;5023118;28;20205;-86
2024/01/03 11:32:29;;;;;;;2.00;0.70;;;;;;;12.29;51.17;93002.50;5029240;28;20223;-86
2024/01/03 11:34:56;;;;;;;1.43;0.77;;;;;;;12.21;51.00;92992.63;5023861;28;20218;-85
2024/01/03 11:37:34;;;;;;;1.77;0.97;;;;;;;12.24;51.21;92990.34;5048556;28;20241;-86
2024/01/03 11:40:03;;;;;;;1.83;1.00;;;;;;;12.18;51.00;92959.59;5025702;28;20214;-86
2024/01/03 11:42:33;;;;;;;2.50;1.00;;;;;;;12.25;50.30;92932.56;5024305;28;20647;-86
2024/01/03 11:45:05;;;;;;;0.63;0.63;;;;;;;12.30;50.19;92914.53;5024696;28;20226;-85
2024/01/03 11:47:35;;;;;;;1.20;0.80;;;;;;;12.33;49.28;92859.03;5023689;28;20223;-86
2024/01/03 11:50:04;;;;;;;1.40;0.67;;;;;;;12.28;49.12;92835.84;5022679;28;20202;-86
2024/01/03 11:52:35;;;;;;;2.60;0.70;;;;;;;12.34;48.85;92835.56;5012290;28;20226;-87